SAS56T EKCH-LKPR
Flight info
| Callsign | SAS56T |
|---|---|
| Flight time | 1h 5m |
| Altitude | 37000 |
| Route | SALLO M44 KOGIM M725 MASOR DCT LUROS M725 HDO DCT GOLOP |
| Aircraft | A320/M-SDE3FGHIRWY/LB1 |
Departure
| Time | 2026-05-04 08:20 |
|---|---|
| Airport | Copenhagen Kastrup Airport (EKCH) |
Arrival
| Time | 2026-05-04 09:25 |
|---|---|
| Airport | Václav Havel Airport Prague (LKPR) |
| Time | Latitude | Longitude | Altitude | Speed | Heading |
|---|---|---|---|---|---|
| 2026-05-04 07:45 | 55.62756 | 12.64469 | 21 ft | 0 kts | 82° |
| 2026-05-04 08:08 | 55.62756 | 12.64468 | 21 ft | 2 kts | 81° |
| 2026-05-04 08:10 | 55.62673 | 12.64313 | 24 ft | 2 kts | 20° |
| 2026-05-04 08:11 | 55.62658 | 12.64304 | 23 ft | 2 kts | 19° |
| 2026-05-04 08:11 | 55.62627 | 12.64283 | 25 ft | 2 kts | 31° |
| 2026-05-04 08:11 | 55.62613 | 12.64267 | 24 ft | 2 kts | 33° |
| 2026-05-04 08:12 | 55.62600 | 12.64251 | 25 ft | 2 kts | 34° |
| 2026-05-04 08:12 | 55.62586 | 12.64235 | 26 ft | 2 kts | 33° |
| 2026-05-04 08:12 | 55.62572 | 12.64219 | 23 ft | 2 kts | 32° |
| 2026-05-04 08:12 | 55.62559 | 12.64202 | 22 ft | 2 kts | 49° |
| 2026-05-04 08:13 | 55.62549 | 12.64179 | 24 ft | 2 kts | 66° |
| 2026-05-04 08:13 | 55.62544 | 12.64151 | 21 ft | 2 kts | 103° |
| 2026-05-04 08:13 | 55.62552 | 12.64126 | 25 ft | 2 kts | 119° |
| 2026-05-04 08:13 | 55.62558 | 12.64108 | 27 ft | 0 kts | 121° |
| 2026-05-04 08:16 | 55.62446 | 12.64389 | 18 ft | 10 kts | 128° |
| 2026-05-04 08:16 | 55.62389 | 12.64448 | 19 ft | 11 kts | 186° |
| 2026-05-04 08:16 | 55.62306 | 12.64412 | 19 ft | 13 kts | 197° |
| 2026-05-04 08:17 | 55.62203 | 12.64350 | 17 ft | 19 kts | 205° |
| 2026-05-04 08:17 | 55.62085 | 12.64245 | 19 ft | 18 kts | 204° |
| 2026-05-04 08:17 | 55.61969 | 12.64151 | 22 ft | 19 kts | 205° |
| 2026-05-04 08:17 | 55.61853 | 12.64072 | 27 ft | 18 kts | 181° |
| 2026-05-04 08:19 | 55.61517 | 12.63894 | 24 ft | 50 kts | 221° |
| 2026-05-04 08:19 | 55.61080 | 12.63218 | 26 ft | 114 kts | 223° |
| 2026-05-04 08:20 | 55.60353 | 12.62096 | 36 ft | 159 kts | 228° |
| 2026-05-04 08:20 | 55.59533 | 12.60784 | 646 ft | 158 kts | 226° |
| 2026-05-04 08:20 | 55.58710 | 12.59508 | 1400 ft | 158 kts | 226° |
| 2026-05-04 08:20 | 55.57822 | 12.58135 | 1803 ft | 181 kts | 225° |
| 2026-05-04 08:21 | 55.56778 | 12.56556 | 2043 ft | 214 kts | 223° |
| 2026-05-04 08:21 | 55.55418 | 12.55149 | 2555 ft | 241 kts | 208° |
| 2026-05-04 08:21 | 55.53788 | 12.54066 | 3280 ft | 255 kts | 203° |
| 2026-05-04 08:21 | 55.52064 | 12.53085 | 4192 ft | 263 kts | 201° |
| 2026-05-04 08:22 | 55.50301 | 12.52160 | 5182 ft | 266 kts | 201° |
| 2026-05-04 08:22 | 55.48517 | 12.51188 | 6128 ft | 270 kts | 201° |
| 2026-05-04 08:24 | 55.39487 | 12.66287 | 11291 ft | 353 kts | 116° |
| 2026-05-04 08:24 | 55.38228 | 12.69948 | 12055 ft | 351 kts | 138° |
| 2026-05-04 08:24 | 55.36371 | 12.72742 | 12750 ft | 351 kts | 146° |
| 2026-05-04 08:24 | 55.34470 | 12.75449 | 13541 ft | 355 kts | 146° |
| 2026-05-04 08:25 | 55.32551 | 12.78204 | 14243 ft | 358 kts | 146° |
| 2026-05-04 08:25 | 55.30627 | 12.80988 | 14965 ft | 360 kts | 146° |
| 2026-05-04 08:25 | 55.28695 | 12.83834 | 15560 ft | 366 kts | 145° |
| 2026-05-04 08:25 | 55.26753 | 12.86734 | 16196 ft | 370 kts | 145° |
| 2026-05-04 08:26 | 55.24788 | 12.89692 | 16854 ft | 373 kts | 145° |
| 2026-05-04 08:27 | 55.10993 | 13.10258 | 21027 ft | 391 kts | 147° |
| 2026-05-04 08:28 | 55.10852 | 13.10465 | 21067 ft | 391 kts | 147° |
| 2026-05-04 08:28 | 55.08761 | 13.13540 | 21670 ft | 394 kts | 147° |
| 2026-05-04 08:28 | 55.06685 | 13.16591 | 22250 ft | 396 kts | 147° |
| 2026-05-04 08:28 | 55.04567 | 13.19700 | 22849 ft | 399 kts | 147° |
| 2026-05-04 08:29 | 55.02435 | 13.22833 | 23443 ft | 402 kts | 147° |
| 2026-05-04 08:29 | 55.00295 | 13.25973 | 23923 ft | 405 kts | 147° |
| 2026-05-04 08:29 | 54.98121 | 13.29154 | 24383 ft | 409 kts | 147° |
| 2026-05-04 08:31 | 54.80411 | 13.41641 | 27352 ft | 401 kts | 179° |
| 2026-05-04 08:33 | 54.60627 | 13.46929 | 29971 ft | 422 kts | 179° |
| 2026-05-04 08:33 | 54.57712 | 13.47708 | 30301 ft | 425 kts | 179° |
| 2026-05-04 08:35 | 54.37350 | 13.52980 | 33655 ft | 412 kts | 179° |
| 2026-05-04 08:35 | 54.34534 | 13.53687 | 34219 ft | 408 kts | 178° |
| 2026-05-04 08:35 | 54.31720 | 13.54389 | 34612 ft | 408 kts | 178° |
| 2026-05-04 08:35 | 54.28912 | 13.55095 | 34923 ft | 409 kts | 178° |
| 2026-05-04 08:37 | 54.12579 | 13.59101 | 36505 ft | 413 kts | 180° |
| 2026-05-04 08:37 | 54.09711 | 13.59700 | 36758 ft | 417 kts | 176° |
| 2026-05-04 08:37 | 54.06837 | 13.60496 | 36918 ft | 419 kts | 175° |
| 2026-05-04 08:38 | 54.03968 | 13.61376 | 36947 ft | 419 kts | 175° |
| 2026-05-04 08:38 | 53.98237 | 13.63101 | 36945 ft | 418 kts | 176° |
| 2026-05-04 08:40 | 53.75250 | 13.69244 | 36959 ft | 418 kts | 176° |
| 2026-05-04 08:41 | 53.69497 | 13.70814 | 36950 ft | 419 kts | 176° |
| 2026-05-04 08:41 | 53.63778 | 13.72348 | 36953 ft | 419 kts | 176° |
| 2026-05-04 08:42 | 53.58012 | 13.73897 | 36956 ft | 419 kts | 176° |
| 2026-05-04 08:42 | 53.52247 | 13.75450 | 36960 ft | 419 kts | 176° |
| 2026-05-04 08:43 | 53.46481 | 13.77009 | 36960 ft | 419 kts | 176° |
| 2026-05-04 08:43 | 53.40724 | 13.78553 | 36964 ft | 419 kts | 176° |
| 2026-05-04 08:44 | 53.34957 | 13.80091 | 36964 ft | 419 kts | 176° |
| 2026-05-04 08:46 | 53.11917 | 13.86179 | 36970 ft | 420 kts | 176° |
| 2026-05-04 08:46 | 53.06149 | 13.87707 | 36966 ft | 420 kts | 176° |
| 2026-05-04 08:47 | 53.00358 | 13.89231 | 36973 ft | 420 kts | 176° |
| 2026-05-04 08:47 | 52.94576 | 13.90740 | 36979 ft | 420 kts | 176° |
| 2026-05-04 08:48 | 52.88797 | 13.92242 | 36984 ft | 420 kts | 176° |
| 2026-05-04 08:48 | 52.83013 | 13.93744 | 36984 ft | 421 kts | 176° |
| 2026-05-04 08:49 | 52.77223 | 13.95252 | 36981 ft | 420 kts | 176° |
| 2026-05-04 08:50 | 52.57032 | 14.00460 | 36987 ft | 419 kts | 176° |
| 2026-05-04 08:51 | 52.51268 | 14.01935 | 36986 ft | 419 kts | 176° |
| 2026-05-04 08:51 | 52.45542 | 14.03393 | 36991 ft | 419 kts | 176° |
| 2026-05-04 08:52 | 52.39782 | 14.04869 | 36990 ft | 419 kts | 176° |
| 2026-05-04 08:52 | 52.34009 | 14.06338 | 36991 ft | 418 kts | 176° |
| 2026-05-04 08:54 | 52.11000 | 14.12157 | 36998 ft | 419 kts | 176° |
| 2026-05-04 08:55 | 52.06209 | 14.13370 | 37001 ft | 419 kts | 176° |
| 2026-05-04 08:55 | 52.00443 | 14.14815 | 37008 ft | 420 kts | 176° |
| 2026-05-04 09:01 | 51.39966 | 14.27538 | 34156 ft | 405 kts | 177° |
| 2026-05-04 09:01 | 51.37176 | 14.28099 | 33650 ft | 403 kts | 177° |
| 2026-05-04 09:01 | 51.34403 | 14.28657 | 33197 ft | 400 kts | 177° |
| 2026-05-04 09:01 | 51.31654 | 14.29208 | 32742 ft | 397 kts | 177° |
| 2026-05-04 09:02 | 51.28919 | 14.29751 | 32298 ft | 395 kts | 177° |
| 2026-05-04 09:02 | 51.26194 | 14.30291 | 31857 ft | 393 kts | 177° |
| 2026-05-04 09:02 | 51.23484 | 14.30827 | 31417 ft | 392 kts | 177° |
| 2026-05-04 09:02 | 51.20782 | 14.31363 | 30990 ft | 390 kts | 177° |
| 2026-05-04 09:03 | 51.18088 | 14.31900 | 30557 ft | 390 kts | 177° |
| 2026-05-04 09:03 | 51.15431 | 14.32430 | 30140 ft | 389 kts | 177° |
| 2026-05-04 09:03 | 51.12716 | 14.32968 | 29695 ft | 388 kts | 177° |
| 2026-05-04 09:03 | 51.10044 | 14.33495 | 29287 ft | 385 kts | 177° |
| 2026-05-04 09:04 | 51.07421 | 14.34010 | 28908 ft | 383 kts | 176° |
| 2026-05-04 09:04 | 51.04742 | 14.34538 | 28508 ft | 381 kts | 176° |
| 2026-05-04 09:04 | 51.02120 | 14.35053 | 28126 ft | 379 kts | 176° |
| 2026-05-04 09:04 | 50.99542 | 14.35559 | 27750 ft | 377 kts | 176° |
| 2026-05-04 09:05 | 50.96936 | 14.36070 | 27363 ft | 375 kts | 176° |
| 2026-05-04 09:05 | 50.94350 | 14.36578 | 26973 ft | 374 kts | 176° |
| 2026-05-04 09:05 | 50.91790 | 14.37257 | 26589 ft | 373 kts | 169° |
| 2026-05-04 09:05 | 50.89267 | 14.38206 | 26191 ft | 372 kts | 169° |
| 2026-05-04 09:06 | 50.86758 | 14.39148 | 25793 ft | 370 kts | 169° |
| 2026-05-04 09:07 | 50.69561 | 14.45528 | 22668 ft | 362 kts | 169° |
| 2026-05-04 09:08 | 50.67056 | 14.46407 | 21758 ft | 372 kts | 170° |
| 2026-05-04 09:08 | 50.64522 | 14.47259 | 21205 ft | 372 kts | 171° |
| 2026-05-04 09:08 | 50.62030 | 14.48078 | 20743 ft | 370 kts | 171° |
| 2026-05-04 09:08 | 50.59521 | 14.48895 | 20297 ft | 367 kts | 171° |
| 2026-05-04 09:09 | 50.57026 | 14.49711 | 19844 ft | 364 kts | 171° |
| 2026-05-04 09:09 | 50.54559 | 14.50520 | 19389 ft | 361 kts | 171° |
| 2026-05-04 09:09 | 50.52117 | 14.51326 | 18958 ft | 358 kts | 171° |
| 2026-05-04 09:09 | 50.49690 | 14.52128 | 18527 ft | 354 kts | 171° |
| 2026-05-04 09:10 | 50.47286 | 14.52922 | 18035 ft | 351 kts | 171° |
| 2026-05-04 09:10 | 50.44903 | 14.53707 | 17538 ft | 348 kts | 171° |
| 2026-05-04 09:10 | 50.42558 | 14.54479 | 16852 ft | 341 kts | 171° |
| 2026-05-04 09:10 | 50.40250 | 14.55237 | 15974 ft | 337 kts | 171° |
| 2026-05-04 09:11 | 50.37949 | 14.55993 | 15421 ft | 337 kts | 171° |
| 2026-05-04 09:11 | 50.35669 | 14.56742 | 14989 ft | 333 kts | 171° |
| 2026-05-04 09:11 | 50.33407 | 14.57486 | 14539 ft | 331 kts | 171° |
| 2026-05-04 09:11 | 50.31158 | 14.58225 | 14086 ft | 328 kts | 171° |
| 2026-05-04 09:12 | 50.28933 | 14.58952 | 13643 ft | 326 kts | 171° |
| 2026-05-04 09:12 | 50.26720 | 14.59673 | 13156 ft | 324 kts | 171° |
| 2026-05-04 09:14 | 50.12595 | 14.64273 | 9605 ft | 280 kts | 171° |
| 2026-05-04 09:14 | 50.10699 | 14.64888 | 8969 ft | 278 kts | 171° |
| 2026-05-04 09:14 | 50.08832 | 14.65490 | 8342 ft | 277 kts | 171° |
| 2026-05-04 09:14 | 50.06948 | 14.66100 | 7718 ft | 277 kts | 171° |
| 2026-05-04 09:15 | 50.05084 | 14.66705 | 7359 ft | 266 kts | 171° |
| 2026-05-04 09:15 | 50.03323 | 14.67280 | 7203 ft | 251 kts | 171° |
| 2026-05-04 09:15 | 50.01656 | 14.67946 | 6809 ft | 247 kts | 161° |
| 2026-05-04 09:15 | 50.00120 | 14.69139 | 6395 ft | 247 kts | 148° |
| 2026-05-04 09:17 | 49.90561 | 14.67996 | 4003 ft | 233 kts | 275° |
| 2026-05-04 09:18 | 49.90933 | 14.65584 | 3996 ft | 231 kts | 297° |
| 2026-05-04 09:18 | 49.91814 | 14.63514 | 3994 ft | 229 kts | 308° |
| 2026-05-04 09:18 | 49.92783 | 14.61550 | 4005 ft | 229 kts | 308° |
| 2026-05-04 09:18 | 49.93750 | 14.59583 | 4006 ft | 229 kts | 308° |
| 2026-05-04 09:19 | 49.94720 | 14.57602 | 3998 ft | 230 kts | 308° |
| 2026-05-04 09:19 | 49.95685 | 14.55629 | 4005 ft | 230 kts | 307° |
| 2026-05-04 09:19 | 49.96656 | 14.53642 | 4006 ft | 230 kts | 308° |
| 2026-05-04 09:19 | 49.97623 | 14.51663 | 4006 ft | 229 kts | 308° |
| 2026-05-04 09:20 | 49.98590 | 14.49683 | 4004 ft | 229 kts | 308° |
| 2026-05-04 09:20 | 49.99527 | 14.47761 | 4007 ft | 216 kts | 308° |
| 2026-05-04 09:20 | 50.00405 | 14.45960 | 3956 ft | 204 kts | 307° |
| 2026-05-04 09:20 | 50.01250 | 14.44226 | 3753 ft | 199 kts | 308° |
| 2026-05-04 09:21 | 50.02068 | 14.42545 | 3490 ft | 196 kts | 309° |
| 2026-05-04 09:21 | 50.02880 | 14.40875 | 3295 ft | 189 kts | 308° |
| 2026-05-04 09:21 | 50.03664 | 14.39264 | 3034 ft | 181 kts | 309° |
| 2026-05-04 09:21 | 50.04402 | 14.37746 | 2790 ft | 167 kts | 309° |
| 2026-05-04 09:22 | 50.05058 | 14.36392 | 2609 ft | 150 kts | 308° |
| 2026-05-04 09:22 | 50.05675 | 14.35123 | 2395 ft | 143 kts | 309° |
| 2026-05-04 09:22 | 50.06261 | 14.33915 | 2217 ft | 138 kts | 309° |
| 2026-05-04 09:22 | 50.06838 | 14.32727 | 2027 ft | 137 kts | 308° |
| 2026-05-04 09:23 | 50.07414 | 14.31560 | 1828 ft | 135 kts | 309° |
| 2026-05-04 09:23 | 50.07988 | 14.30402 | 1618 ft | 135 kts | 308° |
| 2026-05-04 09:23 | 50.08539 | 14.29227 | 1416 ft | 133 kts | 308° |
| 2026-05-04 09:23 | 50.09092 | 14.28072 | 1265 ft | 133 kts | 308° |
| 2026-05-04 09:25 | 50.10435 | 14.25662 | 1183 ft | 0 kts | 7° |
| 2026-05-04 09:25 | 50.10458 | 14.25669 | 1183 ft | 6 kts | 15° |
| 2026-05-04 09:26 | 50.10485 | 14.25725 | 1183 ft | 8 kts | 75° |
| 2026-05-04 09:26 | 50.10498 | 14.25819 | 1184 ft | 10 kts | 80° |
| 2026-05-04 09:26 | 50.10504 | 14.25872 | 1185 ft | 0 kts | 77° |
| 2026-05-04 09:26 | 50.10505 | 14.25881 | 1185 ft | 5 kts | 78° |
| 2026-05-04 09:27 | 50.10521 | 14.26014 | 1188 ft | 15 kts | 78° |
| 2026-05-04 09:27 | 50.10540 | 14.26175 | 1187 ft | 13 kts | 84° |
| 2026-05-04 09:27 | 50.10581 | 14.26263 | 1185 ft | 11 kts | 32° |
| 2026-05-04 09:27 | 50.10590 | 14.26272 | 1185 ft | 0 kts | 32° |